sensor_id;sensor_type;location;lat;lon;timestamp;temperature;humidity
65046;DHT22;54657;52.022;5.534;2023-08-17T00:01:51;19.30;83.50
65046;DHT22;54657;52.022;5.534;2023-08-17T00:04:16;19.30;83.50
65046;DHT22;54657;52.022;5.534;2023-08-17T00:06:42;19.30;83.60
65046;DHT22;54657;52.022;5.534;2023-08-17T00:09:08;19.30;84.20
65046;DHT22;54657;52.022;5.534;2023-08-17T00:11:35;19.30;83.80
65046;DHT22;54657;52.022;5.534;2023-08-17T00:14:01;19.20;83.80
65046;DHT22;54657;52.022;5.534;2023-08-17T00:16:27;19.10;84.00
65046;DHT22;54657;52.022;5.534;2023-08-17T00:18:53;19.10;84.10
65046;DHT22;54657;52.022;5.534;2023-08-17T00:21:18;19.00;84.10
65046;DHT22;54657;52.022;5.534;2023-08-17T00:23:44;19.00;84.40
65046;DHT22;54657;52.022;5.534;2023-08-17T00:26:09;19.10;84.00
65046;DHT22;54657;52.022;5.534;2023-08-17T00:28:35;19.10;84.40
65046;DHT22;54657;52.022;5.534;2023-08-17T00:31:01;19.10;83.80
65046;DHT22;54657;52.022;5.534;2023-08-17T00:33:27;19.10;84.00
65046;DHT22;54657;52.022;5.534;2023-08-17T00:35:53;19.10;84.10
65046;DHT22;54657;52.022;5.534;2023-08-17T00:38:19;19.10;83.80
65046;DHT22;54657;52.022;5.534;2023-08-17T00:40:44;19.10;84.00
65046;DHT22;54657;52.022;5.534;2023-08-17T00:43:10;19.00;83.90
65046;DHT22;54657;52.022;5.534;2023-08-17T00:45:36;19.00;83.90
65046;DHT22;54657;52.022;5.534;2023-08-17T00:48:01;19.00;83.80
65046;DHT22;54657;52.022;5.534;2023-08-17T00:50:29;18.90;84.00
65046;DHT22;54657;52.022;5.534;2023-08-17T00:52:56;18.90;84.30
65046;DHT22;54657;52.022;5.534;2023-08-17T00:55:22;18.90;84.20
65046;DHT22;54657;52.022;5.534;2023-08-17T00:57:47;18.90;84.10
65046;DHT22;54657;52.022;5.534;2023-08-17T01:00:14;18.90;84.50
65046;DHT22;54657;52.022;5.534;2023-08-17T01:02:41;18.80;84.70
65046;DHT22;54657;52.022;5.534;2023-08-17T01:05:07;18.70;84.50
65046;DHT22;54657;52.022;5.534;2023-08-17T01:07:33;18.70;84.70
65046;DHT22;54657;52.022;5.534;2023-08-17T01:09:59;18.80;84.60
65046;DHT22;54657;52.022;5.534;2023-08-17T01:12:42;18.70;84.70
65046;DHT22;54657;52.022;5.534;2023-08-17T01:15:19;18.70;85.30
65046;DHT22;54657;52.022;5.534;2023-08-17T01:20:52;18.70;85.40
65046;DHT22;54657;52.022;5.534;2023-08-17T01:23:18;18.60;85.60
65046;DHT22;54657;52.022;5.534;2023-08-17T01:25:44;18.60;85.40
65046;DHT22;54657;52.022;5.534;2023-08-17T01:28:10;18.50;85.60
65046;DHT22;54657;52.022;5.534;2023-08-17T01:31:05;18.40;86.00
65046;DHT22;54657;52.022;5.534;2023-08-17T01:33:37;18.50;87.40
65046;DHT22;54657;52.022;5.534;2023-08-17T01:38:54;18.50;86.30
65046;DHT22;54657;52.022;5.534;2023-08-17T01:41:22;18.40;86.40
65046;DHT22;54657;52.022;5.534;2023-08-17T01:43:48;18.40;86.30
65046;DHT22;54657;52.022;5.534;2023-08-17T01:46:16;18.40;86.30
65046;DHT22;54657;52.022;5.534;2023-08-17T01:48:45;18.30;86.20
65046;DHT22;54657;52.022;5.534;2023-08-17T01:51:15;18.30;86.40
65046;DHT22;54657;52.022;5.534;2023-08-17T01:53:41;18.30;86.50
65046;DHT22;54657;52.022;5.534;2023-08-17T01:56:07;18.30;86.70
65046;DHT22;54657;52.022;5.534;2023-08-17T01:58:33;18.20;86.50
65046;DHT22;54657;52.022;5.534;2023-08-17T02:00:58;18.30;86.60
65046;DHT22;54657;52.022;5.534;2023-08-17T02:03:24;18.20;86.60
65046;DHT22;54657;52.022;5.534;2023-08-17T02:05:49;18.20;86.70
65046;DHT22;54657;52.022;5.534;2023-08-17T02:08:15;18.20;86.80
65046;DHT22;54657;52.022;5.534;2023-08-17T02:10:41;18.10;86.70
65046;DHT22;54657;52.022;5.534;2023-08-17T02:13:06;18.10;87.00
65046;DHT22;54657;52.022;5.534;2023-08-17T02:15:32;18.00;87.10
65046;DHT22;54657;52.022;5.534;2023-08-17T02:18:01;18.10;86.90
65046;DHT22;54657;52.022;5.534;2023-08-17T02:20:26;18.10;87.20
65046;DHT22;54657;52.022;5.534;2023-08-17T02:22:52;18.10;87.20
65046;DHT22;54657;52.022;5.534;2023-08-17T02:25:17;18.00;87.30
65046;DHT22;54657;52.022;5.534;2023-08-17T02:27:43;18.10;87.20
65046;DHT22;54657;52.022;5.534;2023-08-17T02:30:09;18.00;87.20
65046;DHT22;54657;52.022;5.534;2023-08-17T02:32:35;18.00;87.50
65046;DHT22;54657;52.022;5.534;2023-08-17T02:35:00;17.90;87.80
65046;DHT22;54657;52.022;5.534;2023-08-17T02:37:26;17.90;88.00
65046;DHT22;54657;52.022;5.534;2023-08-17T02:39:51;17.90;88.00
65046;DHT22;54657;52.022;5.534;2023-08-17T02:42:17;17.90;88.00
65046;DHT22;54657;52.022;5.534;2023-08-17T02:44:43;17.80;88.20
65046;DHT22;54657;52.022;5.534;2023-08-17T02:47:08;17.80;88.30
65046;DHT22;54657;52.022;5.534;2023-08-17T02:49:34;17.80;88.30
65046;DHT22;54657;52.022;5.534;2023-08-17T02:52:00;17.80;88.30
65046;DHT22;54657;52.022;5.534;2023-08-17T02:54:26;17.90;89.00
65046;DHT22;54657;52.022;5.534;2023-08-17T02:56:51;17.90;88.20
65046;DHT22;54657;52.022;5.534;2023-08-17T02:59:17;17.90;88.40
65046;DHT22;54657;52.022;5.534;2023-08-17T03:01:45;17.90;88.50
65046;DHT22;54657;52.022;5.534;2023-08-17T03:04:10;17.90;88.50
65046;DHT22;54657;52.022;5.534;2023-08-17T03:06:36;17.90;88.50
65046;DHT22;54657;52.022;5.534;2023-08-17T03:09:02;17.90;88.50
65046;DHT22;54657;52.022;5.534;2023-08-17T03:11:27;17.80;88.50
65046;DHT22;54657;52.022;5.534;2023-08-17T03:13:53;17.80;88.90
65046;DHT22;54657;52.022;5.534;2023-08-17T03:16:28;17.80;89.10
65046;DHT22;54657;52.022;5.534;2023-08-17T03:18:55;17.80;89.10
65046;DHT22;54657;52.022;5.534;2023-08-17T03:21:21;17.70;89.40
65046;DHT22;54657;52.022;5.534;2023-08-17T03:23:47;17.80;89.60
65046;DHT22;54657;52.022;5.534;2023-08-17T03:26:12;17.70;89.60
65046;DHT22;54657;52.022;5.534;2023-08-17T03:28:38;17.70;89.80
65046;DHT22;54657;52.022;5.534;2023-08-17T03:31:03;17.70;89.60
65046;DHT22;54657;52.022;5.534;2023-08-17T03:33:29;17.70;89.90
65046;DHT22;54657;52.022;5.534;2023-08-17T03:35:54;17.60;90.10
65046;DHT22;54657;52.022;5.534;2023-08-17T03:38:20;17.60;90.00
65046;DHT22;54657;52.022;5.534;2023-08-17T03:40:47;17.60;90.00
65046;DHT22;54657;52.022;5.534;2023-08-17T03:43:13;17.60;90.00
65046;DHT22;54657;52.022;5.534;2023-08-17T03:45:40;17.60;90.00
65046;DHT22;54657;52.022;5.534;2023-08-17T03:48:06;17.60;90.20
65046;DHT22;54657;52.022;5.534;2023-08-17T03:50:32;17.70;89.80
65046;DHT22;54657;52.022;5.534;2023-08-17T03:52:58;17.70;90.00
65046;DHT22;54657;52.022;5.534;2023-08-17T03:55:23;17.60;90.00
65046;DHT22;54657;52.022;5.534;2023-08-17T03:57:49;17.60;90.10
65046;DHT22;54657;52.022;5.534;2023-08-17T04:00:14;17.60;90.10
65046;DHT22;54657;52.022;5.534;2023-08-17T04:02:40;17.60;90.20
65046;DHT22;54657;52.022;5.534;2023-08-17T04:05:06;17.60;90.10
65046;DHT22;54657;52.022;5.534;2023-08-17T04:07:31;17.60;90.20
65046;DHT22;54657;52.022;5.534;2023-08-17T04:09:57;17.60;90.10
65046;DHT22;54657;52.022;5.534;2023-08-17T04:12:23;17.60;90.20
65046;DHT22;54657;52.022;5.534;2023-08-17T04:14:48;17.60;90.30
65046;DHT22;54657;52.022;5.534;2023-08-17T04:17:14;17.60;90.60
65046;DHT22;54657;52.022;5.534;2023-08-17T04:19:40;17.60;90.60
65046;DHT22;54657;52.022;5.534;2023-08-17T04:22:05;17.50;90.40
65046;DHT22;54657;52.022;5.534;2023-08-17T04:24:31;17.50;90.40
65046;DHT22;54657;52.022;5.534;2023-08-17T04:26:57;17.50;90.50
65046;DHT22;54657;52.022;5.534;2023-08-17T04:29:22;17.50;90.60
65046;DHT22;54657;52.022;5.534;2023-08-17T04:31:48;17.40;90.60
65046;DHT22;54657;52.022;5.534;2023-08-17T04:34:13;17.40;90.70
65046;DHT22;54657;52.022;5.534;2023-08-17T04:36:39;17.40;90.50
65046;DHT22;54657;52.022;5.534;2023-08-17T04:39:05;17.50;90.50
65046;DHT22;54657;52.022;5.534;2023-08-17T04:41:30;17.40;90.80
65046;DHT22;54657;52.022;5.534;2023-08-17T04:43:56;17.40;90.70
65046;DHT22;54657;52.022;5.534;2023-08-17T04:46:22;17.40;90.60
65046;DHT22;54657;52.022;5.534;2023-08-17T04:48:47;17.40;90.70
65046;DHT22;54657;52.022;5.534;2023-08-17T04:51:13;17.40;90.70
65046;DHT22;54657;52.022;5.534;2023-08-17T04:53:40;17.40;90.80
65046;DHT22;54657;52.022;5.534;2023-08-17T04:56:05;17.50;90.80
65046;DHT22;54657;52.022;5.534;2023-08-17T04:58:31;17.50;90.70
65046;DHT22;54657;52.022;5.534;2023-08-17T05:00:58;17.50;90.80
65046;DHT22;54657;52.022;5.534;2023-08-17T05:03:24;17.50;90.70
65046;DHT22;54657;52.022;5.534;2023-08-17T05:05:51;17.50;90.80
65046;DHT22;54657;52.022;5.534;2023-08-17T05:08:17;17.50;90.70
65046;DHT22;54657;52.022;5.534;2023-08-17T05:10:42;17.50;91.00
65046;DHT22;54657;52.022;5.534;2023-08-17T05:13:08;17.50;90.80
65046;DHT22;54657;52.022;5.534;2023-08-17T05:15:33;17.60;90.70
65046;DHT22;54657;52.022;5.534;2023-08-17T05:17:59;17.60;90.70
65046;DHT22;54657;52.022;5.534;2023-08-17T05:20:24;17.60;90.60
65046;DHT22;54657;52.022;5.534;2023-08-17T05:22:50;17.50;90.80
65046;DHT22;54657;52.022;5.534;2023-08-17T05:25:15;17.60;90.70
65046;DHT22;54657;52.022;5.534;2023-08-17T05:27:41;17.60;90.80
65046;DHT22;54657;52.022;5.534;2023-08-17T05:30:07;17.60;90.70
65046;DHT22;54657;52.022;5.534;2023-08-17T05:32:33;17.70;90.70
65046;DHT22;54657;52.022;5.534;2023-08-17T05:34:58;17.70;90.70
65046;DHT22;54657;52.022;5.534;2023-08-17T05:37:24;17.80;90.60
65046;DHT22;54657;52.022;5.534;2023-08-17T05:39:49;17.80;90.80
65046;DHT22;54657;52.022;5.534;2023-08-17T05:42:15;17.80;90.60
65046;DHT22;54657;52.022;5.534;2023-08-17T05:44:41;17.80;90.80
65046;DHT22;54657;52.022;5.534;2023-08-17T05:47:07;17.80;90.80
65046;DHT22;54657;52.022;5.534;2023-08-17T05:49:32;17.80;90.80
65046;DHT22;54657;52.022;5.534;2023-08-17T05:51:58;17.90;90.70
65046;DHT22;54657;52.022;5.534;2023-08-17T05:54:23;17.90;90.60
65046;DHT22;54657;52.022;5.534;2023-08-17T05:56:49;17.90;90.70
65046;DHT22;54657;52.022;5.534;2023-08-17T05:59:14;17.90;90.70
65046;DHT22;54657;52.022;5.534;2023-08-17T06:01:40;17.80;90.70
65046;DHT22;54657;52.022;5.534;2023-08-17T06:04:06;17.80;90.70
65046;DHT22;54657;52.022;5.534;2023-08-17T06:06:32;17.80;90.80
65046;DHT22;54657;52.022;5.534;2023-08-17T06:08:59;17.80;90.90
65046;DHT22;54657;52.022;5.534;2023-08-17T06:11:24;17.80;90.90
65046;DHT22;54657;52.022;5.534;2023-08-17T06:13:50;17.80;91.00
65046;DHT22;54657;52.022;5.534;2023-08-17T06:16:15;17.80;90.90
65046;DHT22;54657;52.022;5.534;2023-08-17T06:18:41;17.80;91.00
65046;DHT22;54657;52.022;5.534;2023-08-17T06:21:07;17.80;91.10
65046;DHT22;54657;52.022;5.534;2023-08-17T06:23:33;17.80;91.00
65046;DHT22;54657;52.022;5.534;2023-08-17T06:25:59;17.80;91.10
65046;DHT22;54657;52.022;5.534;2023-08-17T06:28:26;17.90;91.30
65046;DHT22;54657;52.022;5.534;2023-08-17T06:30:53;17.90;91.00
65046;DHT22;54657;52.022;5.534;2023-08-17T06:33:19;17.90;91.00
65046;DHT22;54657;52.022;5.534;2023-08-17T06:35:44;17.90;91.20
65046;DHT22;54657;52.022;5.534;2023-08-17T06:38:10;17.90;91.10
65046;DHT22;54657;52.022;5.534;2023-08-17T06:40:36;17.80;91.10
65046;DHT22;54657;52.022;5.534;2023-08-17T06:43:01;17.90;91.20
65046;DHT22;54657;52.022;5.534;2023-08-17T06:45:27;17.90;91.40
65046;DHT22;54657;52.022;5.534;2023-08-17T06:47:52;17.90;91.30
65046;DHT22;54657;52.022;5.534;2023-08-17T06:50:18;18.00;91.30
65046;DHT22;54657;52.022;5.534;2023-08-17T06:52:44;18.00;91.20
65046;DHT22;54657;52.022;5.534;2023-08-17T06:55:09;18.00;91.20
65046;DHT22;54657;52.022;5.534;2023-08-17T06:57:38;18.10;91.40
65046;DHT22;54657;52.022;5.534;2023-08-17T07:00:04;18.10;91.30
65046;DHT22;54657;52.022;5.534;2023-08-17T07:02:33;18.20;91.30
65046;DHT22;54657;52.022;5.534;2023-08-17T07:05:00;18.30;91.20
65046;DHT22;54657;52.022;5.534;2023-08-17T07:07:25;18.40;91.10
65046;DHT22;54657;52.022;5.534;2023-08-17T07:09:51;18.40;91.00
65046;DHT22;54657;52.022;5.534;2023-08-17T07:12:17;18.50;91.10
65046;DHT22;54657;52.022;5.534;2023-08-17T07:14:42;18.50;90.90
65046;DHT22;54657;52.022;5.534;2023-08-17T07:17:08;18.50;91.00
65046;DHT22;54657;52.022;5.534;2023-08-17T07:19:33;18.50;90.90
65046;DHT22;54657;52.022;5.534;2023-08-17T07:21:59;18.50;91.00
65046;DHT22;54657;52.022;5.534;2023-08-17T07:24:25;18.50;90.90
65046;DHT22;54657;52.022;5.534;2023-08-17T07:26:50;18.60;90.90
65046;DHT22;54657;52.022;5.534;2023-08-17T07:29:16;18.70;90.80
65046;DHT22;54657;52.022;5.534;2023-08-17T07:31:41;18.70;90.90
65046;DHT22;54657;52.022;5.534;2023-08-17T07:34:07;18.70;90.80
65046;DHT22;54657;52.022;5.534;2023-08-17T07:36:33;18.80;91.00
65046;DHT22;54657;52.022;5.534;2023-08-17T07:38:59;18.90;90.70
65046;DHT22;54657;52.022;5.534;2023-08-17T07:41:26;18.90;90.70
65046;DHT22;54657;52.022;5.534;2023-08-17T07:43:51;18.90;90.70
65046;DHT22;54657;52.022;5.534;2023-08-17T07:46:17;18.90;90.70
65046;DHT22;54657;52.022;5.534;2023-08-17T07:48:42;18.90;90.60
65046;DHT22;54657;52.022;5.534;2023-08-17T07:51:08;18.90;90.60
65046;DHT22;54657;52.022;5.534;2023-08-17T07:53:34;18.90;90.90
65046;DHT22;54657;52.022;5.534;2023-08-17T07:56:00;19.00;90.70
65046;DHT22;54657;52.022;5.534;2023-08-17T07:58:25;19.00;90.70
65046;DHT22;54657;52.022;5.534;2023-08-17T08:00:51;19.00;90.60
65046;DHT22;54657;52.022;5.534;2023-08-17T08:03:16;19.00;90.80
65046;DHT22;54657;52.022;5.534;2023-08-17T08:05:42;19.10;90.70
65046;DHT22;54657;52.022;5.534;2023-08-17T08:08:07;19.10;90.70
65046;DHT22;54657;52.022;5.534;2023-08-17T08:10:33;19.10;90.60
65046;DHT22;54657;52.022;5.534;2023-08-17T08:12:59;19.00;90.60
65046;DHT22;54657;52.022;5.534;2023-08-17T08:15:24;19.10;90.70
65046;DHT22;54657;52.022;5.534;2023-08-17T08:17:50;19.00;91.00
65046;DHT22;54657;52.022;5.534;2023-08-17T08:20:16;19.10;90.80
65046;DHT22;54657;52.022;5.534;2023-08-17T08:22:41;19.10;90.70
65046;DHT22;54657;52.022;5.534;2023-08-17T08:25:07;19.20;90.70
65046;DHT22;54657;52.022;5.534;2023-08-17T08:27:33;19.20;90.70
65046;DHT22;54657;52.022;5.534;2023-08-17T08:29:58;19.20;90.60
65046;DHT22;54657;52.022;5.534;2023-08-17T08:32:24;19.20;90.50
65046;DHT22;54657;52.022;5.534;2023-08-17T08:34:49;19.20;90.80
65046;DHT22;54657;52.022;5.534;2023-08-17T08:37:15;19.20;90.80
65046;DHT22;54657;52.022;5.534;2023-08-17T08:39:54;19.30;90.70
65046;DHT22;54657;52.022;5.534;2023-08-17T08:42:20;19.40;90.70
65046;DHT22;54657;52.022;5.534;2023-08-17T08:44:47;19.30;90.50
65046;DHT22;54657;52.022;5.534;2023-08-17T08:47:13;19.30;90.50
65046;DHT22;54657;52.022;5.534;2023-08-17T08:49:40;19.30;90.50
65046;DHT22;54657;52.022;5.534;2023-08-17T08:52:07;19.40;90.60
65046;DHT22;54657;52.022;5.534;2023-08-17T08:54:35;19.30;90.60
65046;DHT22;54657;52.022;5.534;2023-08-17T08:57:04;19.30;90.70
65046;DHT22;54657;52.022;5.534;2023-08-17T08:59:33;19.40;90.70
65046;DHT22;54657;52.022;5.534;2023-08-17T09:01:59;19.40;90.60
65046;DHT22;54657;52.022;5.534;2023-08-17T09:04:25;19.30;90.60
65046;DHT22;54657;52.022;5.534;2023-08-17T09:06:51;19.30;90.60
65046;DHT22;54657;52.022;5.534;2023-08-17T09:09:18;19.30;90.60
65046;DHT22;54657;52.022;5.534;2023-08-17T09:11:44;19.30;90.70
65046;DHT22;54657;52.022;5.534;2023-08-17T09:14:09;19.40;90.70
65046;DHT22;54657;52.022;5.534;2023-08-17T09:16:35;19.40;90.70
65046;DHT22;54657;52.022;5.534;2023-08-17T09:19:01;19.50;90.70
65046;DHT22;54657;52.022;5.534;2023-08-17T09:21:31;19.50;90.70
65046;DHT22;54657;52.022;5.534;2023-08-17T09:23:57;19.60;90.80
65046;DHT22;54657;52.022;5.534;2023-08-17T09:26:23;19.60;90.80
65046;DHT22;54657;52.022;5.534;2023-08-17T09:28:52;19.60;90.70
65046;DHT22;54657;52.022;5.534;2023-08-17T09:31:24;19.70;90.70
65046;DHT22;54657;52.022;5.534;2023-08-17T09:33:50;19.70;90.70
65046;DHT22;54657;52.022;5.534;2023-08-17T09:36:24;19.80;90.80
65046;DHT22;54657;52.022;5.534;2023-08-17T09:38:51;19.70;90.60
65046;DHT22;54657;52.022;5.534;2023-08-17T09:41:20;19.60;90.60
65046;DHT22;54657;52.022;5.534;2023-08-17T09:43:48;19.70;90.70
65046;DHT22;54657;52.022;5.534;2023-08-17T09:46:14;19.80;90.60
65046;DHT22;54657;52.022;5.534;2023-08-17T09:48:40;19.80;90.60
65046;DHT22;54657;52.022;5.534;2023-08-17T09:51:08;19.80;90.70
65046;DHT22;54657;52.022;5.534;2023-08-17T09:53:36;19.80;90.60
65046;DHT22;54657;52.022;5.534;2023-08-17T09:56:04;19.80;91.00
65046;DHT22;54657;52.022;5.534;2023-08-17T09:58:30;19.80;90.70
65046;DHT22;54657;52.022;5.534;2023-08-17T10:00:56;19.90;90.60
65046;DHT22;54657;52.022;5.534;2023-08-17T10:03:25;19.80;90.70
65046;DHT22;54657;52.022;5.534;2023-08-17T10:05:58;19.80;90.70
65046;DHT22;54657;52.022;5.534;2023-08-17T10:08:25;19.80;90.80
65046;DHT22;54657;52.022;5.534;2023-08-17T10:10:54;19.80;90.70
65046;DHT22;54657;52.022;5.534;2023-08-17T10:13:31;19.80;90.80
65046;DHT22;54657;52.022;5.534;2023-08-17T10:16:05;19.80;90.80
65046;DHT22;54657;52.022;5.534;2023-08-17T10:21:37;19.80;90.90
65046;DHT22;54657;52.022;5.534;2023-08-17T10:24:05;19.80;91.30
65046;DHT22;54657;52.022;5.534;2023-08-17T10:26:31;19.90;91.00
65046;DHT22;54657;52.022;5.534;2023-08-17T10:28:58;20.00;90.80
65046;DHT22;54657;52.022;5.534;2023-08-17T10:31:27;20.00;90.80
65046;DHT22;54657;52.022;5.534;2023-08-17T10:33:52;20.00;90.70
65046;DHT22;54657;52.022;5.534;2023-08-17T10:36:19;20.10;90.70
65046;DHT22;54657;52.022;5.534;2023-08-17T10:38:46;20.10;90.70
65046;DHT22;54657;52.022;5.534;2023-08-17T10:41:13;20.10;90.70
65046;DHT22;54657;52.022;5.534;2023-08-17T10:43:55;20.10;90.70
65046;DHT22;54657;52.022;5.534;2023-08-17T10:46:21;20.10;90.70
65046;DHT22;54657;52.022;5.534;2023-08-17T10:48:47;20.10;90.70
65046;DHT22;54657;52.022;5.534;2023-08-17T10:51:12;20.20;90.70
65046;DHT22;54657;52.022;5.534;2023-08-17T10:53:40;20.20;90.60
65046;DHT22;54657;52.022;5.534;2023-08-17T10:56:13;20.10;90.70
65046;DHT22;54657;52.022;5.534;2023-08-17T10:58:39;20.20;90.70
65046;DHT22;54657;52.022;5.534;2023-08-17T11:01:06;20.30;90.70
65046;DHT22;54657;52.022;5.534;2023-08-17T11:03:32;20.30;90.80
65046;DHT22;54657;52.022;5.534;2023-08-17T11:06:14;20.30;90.80
65046;DHT22;54657;52.022;5.534;2023-08-17T11:08:51;20.40;90.70
65046;DHT22;54657;52.022;5.534;2023-08-17T11:11:20;20.30;90.80
65046;DHT22;54657;52.022;5.534;2023-08-17T11:13:46;20.30;90.80
65046;DHT22;54657;52.022;5.534;2023-08-17T11:16:15;20.30;90.80
65046;DHT22;54657;52.022;5.534;2023-08-17T11:18:42;20.40;90.80
65046;DHT22;54657;52.022;5.534;2023-08-17T11:21:08;20.40;90.80
65046;DHT22;54657;52.022;5.534;2023-08-17T11:23:36;20.40;90.70
65046;DHT22;54657;52.022;5.534;2023-08-17T11:26:02;20.40;90.70
65046;DHT22;54657;52.022;5.534;2023-08-17T11:28:30;20.30;90.80
65046;DHT22;54657;52.022;5.534;2023-08-17T11:31:06;20.30;90.70
65046;DHT22;54657;52.022;5.534;2023-08-17T11:33:33;20.20;90.90
65046;DHT22;54657;52.022;5.534;2023-08-17T11:36:01;20.20;90.90
65046;DHT22;54657;52.022;5.534;2023-08-17T11:38:35;20.30;90.90
65046;DHT22;54657;52.022;5.534;2023-08-17T11:41:02;20.30;90.90
65046;DHT22;54657;52.022;5.534;2023-08-17T11:43:33;20.40;90.80
65046;DHT22;54657;52.022;5.534;2023-08-17T11:46:00;20.50;90.80
65046;DHT22;54657;52.022;5.534;2023-08-17T11:48:26;20.50;90.80
65046;DHT22;54657;52.022;5.534;2023-08-17T11:50:52;20.50;90.70
65046;DHT22;54657;52.022;5.534;2023-08-17T11:53:18;20.60;90.70
65046;DHT22;54657;52.022;5.534;2023-08-17T11:55:44;20.60;90.80
65046;DHT22;54657;52.022;5.534;2023-08-17T11:58:10;20.60;90.50
65046;DHT22;54657;52.022;5.534;2023-08-17T12:00:40;20.60;90.70
65046;DHT22;54657;52.022;5.534;2023-08-17T12:03:06;20.60;90.60
65046;DHT22;54657;52.022;5.534;2023-08-17T12:05:33;20.60;90.70
65046;DHT22;54657;52.022;5.534;2023-08-17T12:08:02;20.60;90.60
65046;DHT22;54657;52.022;5.534;2023-08-17T12:10:37;20.70;90.70
65046;DHT22;54657;52.022;5.534;2023-08-17T12:13:03;20.80;90.60
65046;DHT22;54657;52.022;5.534;2023-08-17T12:15:35;20.80;90.40
65046;DHT22;54657;52.022;5.534;2023-08-17T12:18:03;20.80;90.60
65046;DHT22;54657;52.022;5.534;2023-08-17T12:20:28;20.70;90.50
65046;DHT22;54657;52.022;5.534;2023-08-17T12:22:57;20.70;90.90
65046;DHT22;54657;52.022;5.534;2023-08-17T12:25:24;20.70;90.60
65046;DHT22;54657;52.022;5.534;2023-08-17T12:27:50;20.70;90.60
65046;DHT22;54657;52.022;5.534;2023-08-17T12:30:27;20.60;90.60
65046;DHT22;54657;52.022;5.534;2023-08-17T12:32:53;20.60;90.60
65046;DHT22;54657;52.022;5.534;2023-08-17T12:35:19;20.50;90.70
65046;DHT22;54657;52.022;5.534;2023-08-17T12:37:47;20.50;90.80
65046;DHT22;54657;52.022;5.534;2023-08-17T12:40:13;20.50;90.80
65046;DHT22;54657;52.022;5.534;2023-08-17T12:42:39;20.60;90.80
65046;DHT22;54657;52.022;5.534;2023-08-17T12:45:04;20.60;90.80
65046;DHT22;54657;52.022;5.534;2023-08-17T12:47:30;20.60;90.70
65046;DHT22;54657;52.022;5.534;2023-08-17T12:49:56;20.50;90.80
65046;DHT22;54657;52.022;5.534;2023-08-17T12:52:21;20.50;90.70
65046;DHT22;54657;52.022;5.534;2023-08-17T12:54:47;20.60;90.80
65046;DHT22;54657;52.022;5.534;2023-08-17T12:57:12;20.60;90.70
65046;DHT22;54657;52.022;5.534;2023-08-17T12:59:38;20.50;90.80
65046;DHT22;54657;52.022;5.534;2023-08-17T13:02:03;20.50;90.80
65046;DHT22;54657;52.022;5.534;2023-08-17T13:04:29;20.50;90.80
65046;DHT22;54657;52.022;5.534;2023-08-17T13:06:54;20.60;90.80
65046;DHT22;54657;52.022;5.534;2023-08-17T13:09:20;20.60;90.70
65046;DHT22;54657;52.022;5.534;2023-08-17T13:11:46;20.60;90.70
65046;DHT22;54657;52.022;5.534;2023-08-17T13:14:13;20.50;90.80
65046;DHT22;54657;52.022;5.534;2023-08-17T13:16:39;20.60;90.80
65046;DHT22;54657;52.022;5.534;2023-08-17T13:19:05;20.70;90.90
65046;DHT22;54657;52.022;5.534;2023-08-17T13:21:30;20.80;90.70
65046;DHT22;54657;52.022;5.534;2023-08-17T13:23:56;20.80;90.60
65046;DHT22;54657;52.022;5.534;2023-08-17T13:26:24;20.70;90.80
65046;DHT22;54657;52.022;5.534;2023-08-17T13:28:50;20.80;90.70
65046;DHT22;54657;52.022;5.534;2023-08-17T13:31:16;20.80;90.70
65046;DHT22;54657;52.022;5.534;2023-08-17T13:33:41;20.80;90.70
65046;DHT22;54657;52.022;5.534;2023-08-17T13:36:07;20.90;90.80
65046;DHT22;54657;52.022;5.534;2023-08-17T13:38:32;20.80;90.70
65046;DHT22;54657;52.022;5.534;2023-08-17T13:40:58;20.80;90.70
65046;DHT22;54657;52.022;5.534;2023-08-17T13:43:23;20.80;90.80
65046;DHT22;54657;52.022;5.534;2023-08-17T13:45:49;20.80;90.80
65046;DHT22;54657;52.022;5.534;2023-08-17T13:48:15;20.70;90.90
65046;DHT22;54657;52.022;5.534;2023-08-17T13:50:40;20.70;90.80
65046;DHT22;54657;52.022;5.534;2023-08-17T13:53:06;20.70;90.80
65046;DHT22;54657;52.022;5.534;2023-08-17T13:55:32;20.60;90.80
65046;DHT22;54657;52.022;5.534;2023-08-17T13:57:58;20.70;90.80
65046;DHT22;54657;52.022;5.534;2023-08-17T14:00:24;20.60;91.00
65046;DHT22;54657;52.022;5.534;2023-08-17T14:02:50;20.60;91.00
65046;DHT22;54657;52.022;5.534;2023-08-17T14:05:16;20.60;91.00
65046;DHT22;54657;52.022;5.534;2023-08-17T14:07:42;20.60;91.10
65046;DHT22;54657;52.022;5.534;2023-08-17T14:10:08;20.50;91.10
65046;DHT22;54657;52.022;5.534;2023-08-17T14:12:34;20.50;91.20
65046;DHT22;54657;52.022;5.534;2023-08-17T14:14:59;20.50;91.30
65046;DHT22;54657;52.022;5.534;2023-08-17T14:17:25;20.50;91.20
65046;DHT22;54657;52.022;5.534;2023-08-17T14:19:50;20.40;91.20
65046;DHT22;54657;52.022;5.534;2023-08-17T14:22:16;20.50;91.30
65046;DHT22;54657;52.022;5.534;2023-08-17T14:24:41;20.50;91.30
65046;DHT22;54657;52.022;5.534;2023-08-17T14:27:07;20.50;91.20
65046;DHT22;54657;52.022;5.534;2023-08-17T14:29:33;20.50;91.30
65046;DHT22;54657;52.022;5.534;2023-08-17T14:31:58;20.50;91.40
65046;DHT22;54657;52.022;5.534;2023-08-17T14:34:24;20.60;91.30
65046;DHT22;54657;52.022;5.534;2023-08-17T14:36:49;20.60;91.30
65046;DHT22;54657;52.022;5.534;2023-08-17T14:39:15;20.70;91.30
65046;DHT22;54657;52.022;5.534;2023-08-17T14:41:40;20.80;91.30
65046;DHT22;54657;52.022;5.534;2023-08-17T14:44:06;20.80;91.20
65046;DHT22;54657;52.022;5.534;2023-08-17T14:46:32;20.80;91.10
65046;DHT22;54657;52.022;5.534;2023-08-17T14:48:58;20.80;91.20
65046;DHT22;54657;52.022;5.534;2023-08-17T14:51:24;20.80;91.20
65046;DHT22;54657;52.022;5.534;2023-08-17T14:53:50;20.80;91.20
65046;DHT22;54657;52.022;5.534;2023-08-17T14:56:15;20.80;91.20
65046;DHT22;54657;52.022;5.534;2023-08-17T14:58:41;20.70;91.20
65046;DHT22;54657;52.022;5.534;2023-08-17T15:01:06;20.70;91.40
65046;DHT22;54657;52.022;5.534;2023-08-17T15:03:32;20.70;91.40
65046;DHT22;54657;52.022;5.534;2023-08-17T15:05:58;20.60;91.30
65046;DHT22;54657;52.022;5.534;2023-08-17T15:08:23;20.70;91.40
65046;DHT22;54657;52.022;5.534;2023-08-17T15:10:49;20.70;91.40
65046;DHT22;54657;52.022;5.534;2023-08-17T15:13:15;20.70;91.30
65046;DHT22;54657;52.022;5.534;2023-08-17T15:15:41;20.70;91.40
65046;DHT22;54657;52.022;5.534;2023-08-17T15:18:08;20.70;91.40
65046;DHT22;54657;52.022;5.534;2023-08-17T15:20:34;20.70;91.40
65046;DHT22;54657;52.022;5.534;2023-08-17T15:25:43;20.60;91.50
65046;DHT22;54657;52.022;5.534;2023-08-17T15:28:11;20.70;91.50
65046;DHT22;54657;52.022;5.534;2023-08-17T15:30:39;20.70;91.50
65046;DHT22;54657;52.022;5.534;2023-08-17T15:33:10;20.70;91.60
65046;DHT22;54657;52.022;5.534;2023-08-17T15:35:36;20.70;91.60
65046;DHT22;54657;52.022;5.534;2023-08-17T15:38:02;20.70;91.50